Bassett, Nebraska
Current Conditions -  °F | °C
As of 12:15 AM on Thursday 29 Jan 2015 (Local Time) from KANW Reporting Station
Overcast Overcast  
Wind Chill: 24°   Ceiling: 1400
Heat Index: 35°   Visibility: 10mi
Dew Point: 30°   Wind: 18mph
Humidity: 81%   Direction: 330°NNW
Pressure: 30.23"   Gusts: 25mph
Location:  42.59°N, 99.54°W
Report Text: KANW 290615Z AUTO 33016G22KT 10SM OVC014 02/M01 A3023 RMK AO2 T00171012
Loading
Personal Weather Stations






























Interactive Weather Map New forecast layout! Learn more

10-Day Weather Forecast

Advertisements
Track Severe Weather on mobile